createdAt,value
2023-04-07T00:00:42.949Z,71.33
2023-04-07T00:03:13.241Z,70.59
2023-04-07T00:05:42.360Z,71.20
2023-04-07T00:08:11.225Z,70.72
2023-04-07T00:10:40.628Z,70.91
2023-04-07T00:13:10.828Z,71.03
2023-04-07T00:15:39.689Z,70.70
2023-04-07T00:18:08.586Z,70.39
2023-04-07T00:20:38.623Z,70.64
2023-04-07T00:23:07.500Z,71.25
2023-04-07T00:25:36.369Z,70.37
2023-04-07T00:28:28.118Z,71.12
2023-04-07T00:30:56.976Z,70.98
2023-04-07T00:33:26.213Z,70.74
2023-04-07T00:35:58.114Z,70.49
2023-04-07T00:38:27.034Z,71.18
2023-04-07T00:40:59.571Z,70.35
2023-04-07T00:43:29.885Z,70.48
2023-04-07T00:45:58.771Z,70.49
2023-04-07T00:48:27.633Z,70.86
2023-04-07T00:50:56.590Z,71.10
2023-04-07T00:53:25.800Z,70.64
2023-04-07T00:55:54.726Z,70.70
2023-04-07T00:58:23.597Z,70.56
2023-04-07T01:01:01.716Z,70.09
2023-04-07T01:03:34.391Z,70.19
2023-04-07T01:06:04.544Z,71.03
2023-04-07T01:08:43.890Z,70.28
2023-04-07T01:11:19.604Z,70.65
2023-04-07T01:13:52.991Z,69.97
2023-04-07T01:16:42.886Z,69.96
2023-04-07T01:19:25.180Z,70.50
2023-04-07T01:22:01.922Z,69.99
2023-04-07T01:24:56.602Z,69.90
2023-04-07T01:27:36.624Z,70.63
2023-04-07T01:30:12.127Z,69.79
2023-04-07T01:32:43.670Z,69.63
2023-04-07T01:35:14.797Z,70.44
2023-04-07T01:37:46.824Z,70.39
2023-04-07T01:40:16.975Z,70.48
2023-04-07T01:42:47.569Z,70.26
2023-04-07T01:45:18.512Z,70.18
2023-04-07T01:47:48.770Z,70.20
2023-04-07T01:50:18.389Z,70.29
2023-04-07T01:52:47.547Z,70.15
2023-04-07T01:55:16.672Z,69.93
2023-04-07T01:58:11.231Z,69.79
2023-04-07T02:00:45.469Z,69.81
2023-04-07T02:03:24.642Z,69.92
2023-04-07T02:05:57.282Z,70.16
2023-04-07T02:08:32.377Z,70.65
2023-04-07T02:11:05.811Z,70.64
2023-04-07T02:13:40.616Z,70.54
2023-04-07T02:16:16.093Z,70.48
2023-04-07T02:18:46.870Z,70.61
2023-04-07T02:21:18.027Z,71.00
2023-04-07T02:23:48.975Z,71.70
2023-04-07T02:26:18.261Z,72.24
2023-04-07T02:28:46.992Z,71.92
2023-04-07T02:31:17.192Z,72.00
2023-04-07T02:33:48.957Z,72.43
2023-04-07T02:36:18.016Z,72.79
2023-04-07T02:38:46.792Z,73.03
2023-04-07T02:41:16.170Z,74.29
2023-04-07T02:43:44.876Z,74.67
2023-04-07T02:46:15.478Z,74.26
2023-04-07T02:48:47.248Z,75.03
2023-04-07T02:51:16.055Z,75.05
2023-04-07T02:53:44.833Z,75.50
2023-04-07T02:56:14.484Z,76.07
2023-04-07T02:58:43.364Z,76.27
2023-04-07T03:01:12.517Z,76.82
2023-04-07T03:03:42.790Z,76.83
2023-04-07T03:06:20.374Z,76.84
2023-04-07T03:09:05.673Z,76.71
2023-04-07T03:11:36.079Z,77.11
2023-04-07T03:14:05.390Z,77.52
2023-04-07T03:16:35.627Z,77.71
2023-04-07T03:19:09.720Z,77.36
2023-04-07T03:21:44.435Z,77.12
2023-04-07T03:24:13.606Z,77.17
2023-04-07T03:26:42.333Z,77.58
2023-04-07T03:29:20.882Z,77.49
2023-04-07T03:31:50.149Z,77.57
2023-04-07T03:34:22.811Z,77.12
2023-04-07T03:36:53.035Z,76.93
2023-04-07T03:39:21.776Z,76.55
2023-04-07T03:41:52.275Z,76.22
2023-04-07T03:44:21.339Z,76.38
2023-04-07T03:46:50.976Z,76.94
2023-04-07T03:49:21.426Z,75.88
2023-04-07T03:51:53.000Z,76.59
2023-04-07T03:54:22.805Z,76.42
2023-04-07T03:56:51.724Z,76.48
2023-04-07T03:59:24.998Z,76.40
2023-04-07T04:02:00.293Z,75.40
2023-04-07T04:04:30.777Z,75.33
2023-04-07T04:07:04.870Z,75.11
2023-04-07T04:09:44.722Z,75.13
2023-04-07T04:12:14.762Z,75.91
2023-04-07T04:14:58.267Z,75.94
2023-04-07T04:17:27.208Z,75.33
2023-04-07T04:19:56.465Z,75.79
2023-04-07T04:22:35.229Z,75.76
2023-04-07T04:25:04.271Z,75.01
2023-04-07T04:27:33.507Z,75.36
2023-04-07T04:30:11.621Z,75.09
2023-04-07T04:32:47.280Z,74.92
2023-04-07T04:35:18.476Z,74.60
2023-04-07T04:38:01.517Z,75.17
2023-04-07T04:40:30.289Z,74.45
2023-04-07T04:42:59.260Z,75.13
2023-04-07T04:45:28.884Z,75.28
2023-04-07T04:47:57.635Z,75.29
2023-04-07T04:50:26.548Z,75.20
2023-04-07T04:52:56.151Z,74.97
2023-04-07T04:55:27.735Z,74.46
2023-04-07T04:57:57.088Z,74.73
2023-04-07T05:00:35.929Z,74.89
2023-04-07T05:03:09.084Z,74.86
2023-04-07T05:05:42.096Z,74.60
2023-04-07T05:08:12.684Z,74.92
2023-04-07T05:10:45.654Z,75.26
2023-04-07T05:13:18.547Z,74.91
2023-04-07T05:15:49.013Z,74.34
2023-04-07T05:18:17.949Z,75.12
2023-04-07T05:20:47.445Z,75.25
2023-04-07T05:23:16.686Z,74.58
2023-04-07T05:25:49.971Z,74.98
2023-04-07T05:28:20.416Z,74.99
2023-04-07T05:30:50.736Z,74.89
2023-04-07T05:33:21.266Z,74.22
2023-04-07T05:35:54.454Z,74.27
2023-04-07T05:38:23.731Z,74.68
2023-04-07T05:40:56.327Z,74.08
2023-04-07T05:43:33.843Z,73.97
2023-04-07T05:46:03.092Z,74.61
2023-04-07T05:48:32.731Z,74.56
2023-04-07T05:51:01.830Z,74.10
2023-04-07T05:53:30.630Z,74.32
2023-04-07T05:56:01.588Z,74.67
2023-04-07T05:58:41.465Z,75.05
2023-04-07T06:01:11.931Z,76.14
2023-04-07T06:03:41.357Z,76.62
2023-04-07T06:06:17.756Z,76.97
2023-04-07T06:08:48.090Z,77.18
2023-04-07T06:11:18.551Z,77.06
2023-04-07T06:13:47.441Z,77.08
2023-04-07T06:16:17.466Z,77.81
2023-04-07T06:18:47.795Z,77.86
2023-04-07T06:21:16.743Z,77.40
2023-04-07T06:23:45.947Z,77.97
2023-04-07T06:26:14.999Z,77.34
2023-04-07T06:28:45.212Z,77.97
2023-04-07T06:31:15.006Z,77.83
2023-04-07T06:33:43.518Z,77.93
2023-04-07T06:36:12.528Z,78.16
2023-04-07T06:38:41.503Z,77.83
2023-04-07T06:41:13.401Z,77.51
2023-04-07T06:43:42.416Z,77.85
2023-04-07T06:46:12.685Z,77.34
2023-04-07T06:48:41.919Z,77.14
2023-04-07T06:51:10.757Z,77.10
2023-04-07T06:53:40.358Z,77.12
2023-04-07T06:56:11.008Z,77.15
2023-04-07T06:58:40.148Z,77.84
2023-04-07T07:01:08.795Z,77.45
2023-04-07T07:03:39.530Z,77.99
2023-04-07T07:06:08.717Z,77.99
2023-04-07T07:08:37.355Z,78.55
2023-04-07T07:11:06.365Z,78.41
2023-04-07T07:13:35.355Z,78.91
2023-04-07T07:16:06.650Z,78.66
2023-04-07T07:18:41.590Z,79.16
2023-04-07T07:21:11.091Z,79.41
2023-04-07T07:23:40.829Z,79.24
2023-04-07T07:26:10.114Z,79.05
2023-04-07T07:28:39.186Z,78.89
2023-04-07T07:31:13.399Z,78.59
2023-04-07T07:33:46.617Z,78.55
2023-04-07T07:36:15.628Z,78.93
2023-04-07T07:38:44.265Z,78.43
2023-04-07T07:41:13.449Z,78.79
2023-04-07T07:43:42.181Z,78.11
2023-04-07T07:46:11.076Z,78.60
2023-04-07T07:48:39.742Z,77.95
2023-04-07T07:51:09.987Z,78.28
2023-04-07T07:53:38.913Z,77.84
2023-04-07T07:56:07.503Z,77.89
2023-04-07T07:58:36.246Z,77.42
2023-04-07T08:01:04.909Z,77.59
2023-04-07T08:03:33.768Z,76.99
2023-04-07T08:06:03.333Z,76.87
2023-04-07T08:08:33.535Z,76.14
2023-04-07T08:11:03.209Z,76.07
2023-04-07T08:13:31.980Z,75.88
2023-04-07T08:16:01.156Z,75.16
2023-04-07T08:18:29.805Z,75.25
2023-04-07T08:20:58.907Z,74.99
2023-04-07T08:23:27.650Z,74.53
2023-04-07T08:25:57.721Z,74.40
2023-04-07T08:28:28.335Z,74.12
2023-04-07T08:30:57.057Z,74.16
2023-04-07T08:33:25.921Z,73.29
2023-04-07T08:35:54.841Z,73.12
2023-04-07T08:38:23.611Z,72.49
2023-04-07T08:41:01.978Z,72.33
2023-04-07T08:43:30.948Z,72.68
2023-04-07T08:45:59.890Z,71.74
2023-04-07T08:48:34.174Z,70.64
2023-04-07T08:51:08.630Z,70.28
2023-04-07T08:53:44.737Z,69.82
2023-04-07T09:35:56.378Z,67.32
2023-04-07T09:38:35.186Z,66.63
2023-04-07T09:41:11.725Z,65.54
2023-04-07T09:43:41.856Z,65.98
2023-04-07T09:46:13.300Z,65.24
2023-04-07T09:48:42.799Z,64.97
2023-04-07T09:51:14.708Z,64.89
2023-04-07T09:53:45.374Z,64.21
2023-04-07T09:56:16.447Z,63.54
2023-04-07T09:58:47.459Z,63.18
2023-04-07T10:01:18.371Z,63.19
2023-04-07T10:03:48.625Z,63.18
2023-04-07T10:06:19.651Z,62.72
2023-04-07T10:08:48.649Z,63.98
2023-04-07T10:11:18.209Z,64.07
2023-04-07T10:13:47.653Z,62.81
2023-04-07T10:16:17.373Z,62.16
2023-04-07T10:18:46.573Z,61.14
2023-04-07T10:21:19.886Z,60.52
2023-04-07T10:23:58.157Z,59.31
2023-04-07T10:26:31.929Z,58.76
2023-04-07T10:29:07.491Z,58.59
2023-04-07T10:31:38.866Z,58.13
2023-04-07T10:34:07.746Z,58.05
2023-04-07T10:36:39.038Z,58.62
2023-04-07T10:39:25.135Z,57.33
2023-04-07T10:41:54.181Z,56.89
2023-04-07T10:44:44.712Z,57.79
2023-04-07T10:47:14.524Z,57.87
2023-04-07T10:50:02.989Z,56.79
2023-04-07T10:52:33.583Z,57.21
2023-04-07T10:55:24.016Z,56.71
2023-04-07T10:58:18.405Z,57.31
2023-04-07T11:01:12.976Z,57.85
2023-04-07T11:03:43.553Z,56.90
2023-04-07T11:06:14.267Z,57.00
2023-04-07T11:08:48.993Z,56.34
2023-04-07T11:11:22.873Z,55.55
2023-04-07T11:13:52.872Z,55.27
2023-04-07T11:16:22.183Z,55.25
2023-04-07T11:18:51.072Z,56.33
2023-04-07T11:21:20.736Z,55.34
2023-04-07T11:23:51.342Z,55.95
2023-04-07T11:26:20.395Z,55.79
2023-04-07T11:28:51.897Z,56.39
2023-04-07T11:31:25.140Z,55.46
2023-04-07T11:33:56.394Z,55.17
2023-04-07T11:36:29.874Z,54.89
2023-04-07T11:39:02.499Z,55.40
2023-04-07T11:41:34.009Z,55.19
2023-04-07T11:44:10.896Z,55.59
2023-04-07T11:46:55.221Z,55.33
2023-04-07T11:49:25.176Z,54.95
2023-04-07T11:51:59.909Z,56.13
2023-04-07T11:54:40.739Z,56.25
2023-04-07T11:57:12.288Z,55.80
2023-04-07T11:59:41.615Z,55.74
2023-04-07T12:02:10.606Z,55.86
2023-04-07T12:04:41.191Z,56.57
2023-04-07T12:07:12.753Z,57.13
2023-04-07T12:09:43.059Z,57.14
2023-04-07T12:12:11.856Z,56.35
2023-04-07T12:14:40.506Z,56.31
2023-04-07T12:17:09.653Z,56.12
2023-04-07T12:19:39.878Z,56.62
2023-04-07T12:22:09.096Z,56.10
2023-04-07T12:24:37.840Z,55.93
2023-04-07T12:27:08.587Z,56.29
2023-04-07T12:29:37.809Z,56.19
2023-04-07T12:32:06.607Z,57.12
2023-04-07T12:34:38.286Z,56.56
2023-04-07T12:37:07.424Z,56.76
2023-04-07T12:39:36.137Z,57.08
2023-04-07T12:42:05.382Z,57.85
2023-04-07T12:44:35.822Z,57.24
2023-04-07T12:47:04.604Z,56.45
2023-04-07T12:49:33.334Z,56.79
2023-04-07T12:52:02.306Z,57.20
2023-04-07T12:54:31.065Z,56.90
2023-04-07T12:57:00.166Z,57.20
2023-04-07T12:59:28.925Z,57.61
2023-04-07T13:01:59.668Z,57.27
2023-04-07T13:04:30.727Z,57.36
2023-04-07T13:07:01.367Z,57.80
2023-04-07T13:09:30.331Z,57.05
2023-04-07T13:11:59.260Z,56.79
2023-04-07T13:14:28.166Z,56.90
2023-04-07T13:16:58.457Z,57.76
2023-04-07T13:19:27.354Z,57.23
2023-04-07T13:21:56.861Z,57.98
2023-04-07T13:24:28.236Z,57.63
2023-04-07T13:26:58.096Z,57.25
2023-04-07T13:29:27.583Z,57.73
2023-04-07T13:32:08.284Z,57.57
2023-04-07T13:34:38.119Z,57.89
2023-04-07T13:37:06.730Z,57.65
2023-04-07T13:39:35.511Z,57.32
2023-04-07T13:42:04.898Z,58.15
2023-04-07T13:44:33.988Z,57.31
2023-04-07T13:47:03.459Z,58.26
2023-04-07T13:49:33.844Z,57.71
2023-04-07T13:52:02.746Z,58.21
2023-04-07T13:54:31.480Z,57.74
2023-04-07T13:57:00.534Z,58.03
2023-04-07T13:59:29.332Z,58.40
2023-04-07T14:01:58.383Z,57.63
2023-04-07T14:04:27.547Z,57.87
2023-04-07T14:06:58.129Z,58.08
2023-04-07T14:09:26.932Z,58.09
2023-04-07T14:11:55.671Z,58.43
2023-04-07T14:14:24.497Z,58.00
2023-04-07T14:16:53.434Z,58.83
2023-04-07T14:19:23.641Z,58.71
2023-04-07T14:21:52.954Z,59.01
2023-04-07T14:24:23.176Z,58.87
2023-04-07T14:26:54.857Z,58.85
2023-04-07T14:29:24.064Z,59.22
2023-04-07T14:31:52.899Z,59.51
2023-04-07T14:34:23.487Z,58.91
2023-04-07T14:36:56.233Z,58.33
2023-04-07T14:39:26.639Z,59.10
2023-04-07T14:41:55.394Z,59.42
2023-04-07T14:44:24.194Z,59.39
2023-04-07T14:46:54.312Z,59.61
2023-04-07T14:49:23.543Z,60.35
2023-04-07T14:51:52.240Z,61.08
2023-04-07T14:54:21.897Z,60.85
2023-04-07T14:56:51.991Z,60.51
2023-04-07T14:59:20.967Z,60.45
2023-04-07T15:01:49.756Z,60.91
2023-04-07T15:04:18.717Z,60.57
2023-04-07T15:06:47.708Z,61.06
2023-04-07T15:09:16.552Z,60.62
2023-04-07T15:11:46.315Z,60.39
2023-04-07T15:14:16.552Z,60.62
2023-04-07T15:16:47.702Z,60.82
2023-04-07T15:19:16.581Z,61.34
2023-04-07T15:21:45.279Z,61.76
2023-04-07T15:24:16.040Z,61.92
2023-04-07T15:26:45.653Z,61.83
2023-04-07T15:29:15.762Z,63.21
2023-04-07T15:31:44.595Z,62.75
2023-04-07T15:34:14.368Z,63.16
2023-04-07T15:36:43.198Z,63.80
2023-04-07T15:39:11.911Z,64.02
2023-04-07T15:41:40.780Z,63.26
2023-04-07T15:44:09.500Z,64.12
2023-04-07T15:46:39.757Z,64.09
2023-04-07T15:49:08.559Z,64.27
2023-04-07T15:51:37.336Z,64.49
2023-04-07T15:54:06.129Z,65.00
2023-04-07T15:56:35.738Z,65.31
2023-04-07T15:59:04.539Z,66.47
2023-04-07T16:01:34.018Z,67.74
2023-04-07T16:04:04.354Z,68.53
2023-04-07T16:06:33.217Z,69.06
2023-04-07T16:09:01.935Z,70.10
2023-04-07T16:11:30.866Z,71.14
2023-04-07T16:13:59.535Z,71.45
2023-04-07T16:16:28.342Z,72.16
2023-04-07T16:18:57.128Z,72.82
2023-04-07T16:21:27.571Z,72.65
2023-04-07T16:23:56.400Z,72.94
2023-04-07T16:26:25.238Z,73.77
2023-04-07T16:28:53.948Z,73.83
2023-04-07T16:31:22.705Z,73.44
2023-04-07T16:33:52.063Z,73.70
2023-04-07T16:36:20.841Z,74.48
2023-04-07T16:38:51.321Z,74.44
2023-04-07T16:41:20.482Z,74.84
2023-04-07T16:43:49.441Z,74.73
2023-04-07T16:46:18.254Z,75.37
2023-04-07T16:48:47.901Z,75.38
2023-04-07T16:51:18.265Z,76.14
2023-04-07T16:53:47.752Z,76.40
2023-04-07T16:56:22.663Z,76.42
2023-04-07T16:58:52.256Z,77.55
2023-04-07T17:01:21.000Z,77.83
2023-04-07T17:03:50.492Z,77.73
2023-04-07T17:06:19.306Z,78.49
2023-04-07T17:08:49.131Z,78.36
2023-04-07T17:11:17.808Z,78.79
2023-04-07T17:13:48.870Z,78.64
2023-04-07T17:16:17.865Z,78.71
2023-04-07T17:18:48.234Z,78.99
2023-04-07T17:21:17.366Z,79.28
2023-04-07T17:23:46.304Z,79.57
2023-04-07T17:26:16.440Z,80.14
2023-04-07T17:28:46.170Z,80.27
2023-04-07T17:31:17.992Z,80.36
2023-04-07T17:33:48.341Z,79.98
2023-04-07T17:36:17.862Z,79.79
2023-04-07T17:38:46.679Z,79.49
2023-04-07T17:41:15.970Z,79.78
2023-04-07T17:43:45.107Z,79.28
2023-04-07T17:46:15.795Z,79.25
2023-04-07T17:48:45.084Z,80.05
2023-04-07T17:51:14.348Z,79.95
2023-04-07T17:53:43.032Z,80.00
2023-04-07T17:56:12.934Z,79.96
2023-04-07T17:58:41.994Z,79.89
2023-04-07T18:01:11.844Z,80.32
2023-04-07T18:03:42.483Z,80.66
2023-04-07T18:06:11.346Z,80.22
2023-04-07T18:08:40.060Z,80.33
2023-04-07T18:11:08.848Z,80.38
2023-04-07T18:13:37.624Z,80.73
2023-04-07T18:16:09.857Z,80.82
2023-04-07T18:18:38.994Z,80.74
2023-04-07T18:21:09.379Z,81.13
2023-04-07T18:23:38.190Z,81.10
2023-04-07T18:26:07.424Z,81.39
2023-04-07T18:28:36.526Z,81.54
2023-04-07T18:31:07.910Z,81.97
2023-04-07T18:33:37.818Z,81.52
2023-04-07T18:36:09.314Z,81.72
2023-04-07T18:38:38.263Z,81.54
2023-04-07T18:41:08.681Z,81.83
2023-04-07T18:43:37.572Z,81.65
2023-04-07T18:46:06.412Z,81.79
2023-04-07T18:48:35.594Z,81.97
2023-04-07T18:51:04.566Z,81.95
2023-04-07T18:53:34.878Z,81.56
2023-04-07T18:56:03.752Z,82.01
2023-04-07T18:58:32.700Z,81.97
2023-04-07T19:01:01.560Z,82.09
2023-04-07T19:03:30.609Z,82.31
2023-04-07T19:06:02.834Z,82.17
2023-04-07T19:08:32.273Z,82.17
2023-04-07T19:11:02.431Z,82.49
2023-04-07T19:13:31.345Z,82.88
2023-04-07T19:16:00.459Z,82.78
2023-04-07T19:18:29.505Z,82.50
2023-04-07T19:20:58.318Z,82.65
2023-04-07T19:23:27.301Z,83.02
2023-04-07T19:25:56.082Z,83.19
2023-04-07T19:28:26.671Z,83.18
2023-04-07T19:30:56.219Z,83.26
2023-04-07T19:33:24.955Z,83.53
2023-04-07T19:35:54.178Z,83.57
2023-04-07T19:38:22.910Z,83.27
2023-04-07T19:40:52.408Z,83.81
2023-04-07T19:43:21.362Z,83.92
2023-04-07T19:45:51.669Z,84.12
2023-04-07T19:48:20.468Z,84.09
2023-04-07T19:50:50.218Z,84.39
2023-04-07T19:53:19.016Z,84.28
2023-04-07T19:55:51.052Z,84.43
2023-04-07T19:58:22.438Z,84.70
2023-04-07T20:00:54.324Z,84.80
2023-04-07T20:03:23.479Z,84.66
2023-04-07T20:05:53.275Z,85.00
2023-04-07T20:08:22.104Z,84.71
2023-04-07T20:10:52.756Z,84.75
2023-04-07T20:13:21.711Z,84.79
2023-04-07T20:15:50.406Z,85.03
2023-04-07T20:18:20.716Z,84.91
2023-04-07T20:20:50.426Z,85.01
2023-04-07T20:23:22.332Z,84.98
2023-04-07T20:25:52.048Z,85.11
2023-04-07T20:28:21.509Z,85.11
2023-04-07T20:30:50.319Z,85.11
2023-04-07T20:33:20.669Z,84.98
2023-04-07T20:35:49.657Z,85.14
2023-04-07T20:38:18.859Z,85.46
2023-04-07T20:40:47.641Z,85.40
2023-04-07T20:43:18.298Z,85.51
2023-04-07T20:45:47.635Z,85.27
2023-04-07T20:48:18.686Z,85.06
2023-04-07T20:50:49.076Z,85.14
2023-04-07T20:53:18.683Z,85.52
2023-04-07T20:55:47.544Z,85.73
2023-04-07T20:58:17.972Z,85.47
2023-04-07T21:00:46.955Z,85.15
2023-04-07T21:03:16.185Z,85.46
2023-04-07T21:05:45.976Z,85.79
2023-04-07T21:08:16.305Z,85.62
2023-04-07T21:10:45.020Z,85.31
2023-04-07T21:13:13.869Z,85.44
2023-04-07T21:15:44.346Z,85.39
2023-04-07T21:18:13.935Z,85.65
2023-04-07T21:20:42.699Z,85.34
2023-04-07T21:23:11.485Z,85.37
2023-04-07T21:25:41.582Z,85.28
2023-04-07T21:28:10.600Z,85.80
2023-04-07T21:30:42.363Z,85.73
2023-04-07T21:33:11.322Z,85.91
2023-04-07T21:35:40.275Z,85.85
2023-04-07T21:38:09.509Z,85.55
2023-04-07T21:40:38.523Z,85.59
2023-04-07T21:43:08.761Z,85.40
2023-04-07T21:45:37.509Z,85.42
2023-04-07T21:48:06.950Z,85.19
2023-04-07T21:50:36.147Z,85.40
2023-04-07T21:53:04.897Z,85.37
2023-04-07T21:55:33.741Z,85.77
2023-04-07T21:58:02.664Z,85.55
2023-04-07T22:00:32.973Z,85.47
2023-04-07T22:03:02.103Z,85.66
2023-04-07T22:05:31.212Z,85.47
2023-04-07T22:08:00.011Z,85.38
2023-04-07T22:10:28.949Z,85.63
2023-04-07T22:12:57.664Z,85.99
2023-04-07T22:15:26.557Z,86.03
2023-04-07T22:17:57.964Z,85.98
2023-04-07T22:20:27.309Z,85.63
2023-04-07T22:22:57.916Z,85.75
2023-04-07T22:25:27.180Z,85.90
2023-04-07T22:27:57.140Z,85.94
2023-04-07T22:30:26.408Z,85.95
2023-04-07T22:32:56.720Z,85.84
2023-04-07T22:35:26.171Z,86.48
2023-04-07T22:37:54.972Z,85.86
2023-04-07T22:40:23.918Z,86.06
2023-04-07T22:42:52.575Z,85.97
2023-04-07T22:45:21.471Z,85.97
2023-04-07T22:47:50.170Z,86.05
2023-04-07T22:50:20.393Z,86.05
2023-04-07T22:52:49.201Z,86.23
2023-04-07T22:55:18.149Z,86.22
2023-04-07T22:57:47.352Z,86.20
2023-04-07T23:00:16.985Z,86.32
2023-04-07T23:02:45.941Z,86.43
2023-04-07T23:05:14.648Z,86.18
2023-04-07T23:07:46.616Z,86.16
2023-04-07T23:10:15.776Z,86.42
2023-04-07T23:12:44.627Z,86.43
2023-04-07T23:15:14.315Z,86.03
2023-04-07T23:17:43.244Z,86.63
2023-04-07T23:20:12.345Z,85.85
2023-04-07T23:22:41.365Z,86.09
2023-04-07T23:25:11.788Z,85.74
2023-04-07T23:27:40.584Z,85.84
2023-04-07T23:30:10.648Z,85.84
2023-04-07T23:32:39.477Z,85.48
2023-04-07T23:35:08.738Z,85.72
2023-04-07T23:37:37.628Z,84.82
2023-04-07T23:40:07.448Z,85.32
2023-04-07T23:42:38.233Z,84.88
2023-04-07T23:45:08.264Z,84.87
2023-04-07T23:47:37.223Z,85.10
2023-04-07T23:50:06.736Z,84.59
2023-04-07T23:52:35.918Z,84.79
2023-04-07T23:55:05.043Z,84.97
2023-04-07T23:57:33.892Z,84.98
